Middletown, Vermont
Current Conditions -  °F | °C
As of 7:54 AM on Sunday 23 Nov 2014 (Local Time) from KVSF Reporting Station
Overcast Overcast  
Wind Chill:   Ceiling: 2500
Heat Index:   Visibility: 10mi
Dew Point:   Wind: 6mph
Humidity: 86%   Direction: 160°SSE
Pressure: 30.07"   Gusts: NA
Location:  43.2811°N, 72.6352°W
Report Text: KVSF 231254Z AUTO 16005KT 10SM OVC025 04/02 A3007 RMK AO2 SLP190 T00440022
Loading
Personal Weather Stations






























Interactive Weather Map New forecast layout! Learn more

10-Day Weather Forecast

Advertisements
Track Severe Weather on mobile